sensor_id;sensor_type;location;lat;lon;timestamp;P1;durP1;ratioP1;P2;durP2;ratioP2
35380;SDS011;21486;51.916;8.378;2023-04-01T00:00:18;4.90;;;1.75;;
35380;SDS011;21486;51.916;8.378;2023-04-01T00:02:45;7.00;;;1.70;;
35380;SDS011;21486;51.916;8.378;2023-04-01T00:05:10;5.20;;;1.80;;
35380;SDS011;21486;51.916;8.378;2023-04-01T00:07:37;4.25;;;1.55;;
35380;SDS011;21486;51.916;8.378;2023-04-01T00:10:03;4.00;;;1.67;;
35380;SDS011;21486;51.916;8.378;2023-04-01T00:12:32;5.25;;;1.73;;
35380;SDS011;21486;51.916;8.378;2023-04-01T00:14:58;6.30;;;1.80;;
35380;SDS011;21486;51.916;8.378;2023-04-01T00:17:24;7.28;;;1.98;;
35380;SDS011;21486;51.916;8.378;2023-04-01T00:19:51;4.57;;;1.52;;
35380;SDS011;21486;51.916;8.378;2023-04-01T00:22:16;2.70;;;1.20;;
35380;SDS011;21486;51.916;8.378;2023-04-01T00:24:42;4.97;;;1.20;;
35380;SDS011;21486;51.916;8.378;2023-04-01T00:27:08;3.63;;;1.40;;
35380;SDS011;21486;51.916;8.378;2023-04-01T00:29:34;5.38;;;1.40;;
35380;SDS011;21486;51.916;8.378;2023-04-01T00:33:01;2.92;;;1.50;;
35380;SDS011;21486;51.916;8.378;2023-04-01T00:35:27;6.17;;;1.40;;
35380;SDS011;21486;51.916;8.378;2023-04-01T00:37:53;3.50;;;1.50;;
35380;SDS011;21486;51.916;8.378;2023-04-01T00:40:31;6.20;;;1.70;;
35380;SDS011;21486;51.916;8.378;2023-04-01T00:42:59;2.90;;;1.20;;
35380;SDS011;21486;51.916;8.378;2023-04-01T00:45:30;3.42;;;1.30;;
35380;SDS011;21486;51.916;8.378;2023-04-01T00:48:00;5.63;;;1.70;;
35380;SDS011;21486;51.916;8.378;2023-04-01T00:50:29;4.28;;;1.30;;
35380;SDS011;21486;51.916;8.378;2023-04-01T00:52:56;3.65;;;1.52;;
35380;SDS011;21486;51.916;8.378;2023-04-01T00:55:23;4.32;;;1.30;;
35380;SDS011;21486;51.916;8.378;2023-04-01T00:57:51;6.57;;;1.80;;
35380;SDS011;21486;51.916;8.378;2023-04-01T01:00:21;2.85;;;1.50;;
35380;SDS011;21486;51.916;8.378;2023-04-01T01:02:47;4.25;;;1.42;;
35380;SDS011;21486;51.916;8.378;2023-04-01T01:05:16;5.53;;;1.80;;
35380;SDS011;21486;51.916;8.378;2023-04-01T01:07:54;3.92;;;1.45;;
35380;SDS011;21486;51.916;8.378;2023-04-01T01:10:32;3.20;;;1.10;;
35380;SDS011;21486;51.916;8.378;2023-04-01T01:23:49;5.85;;;1.33;;
35380;SDS011;21486;51.916;8.378;2023-04-01T01:29:22;3.92;;;1.48;;
35380;SDS011;21486;51.916;8.378;2023-04-01T01:37:45;6.35;;;1.40;;
35380;SDS011;21486;51.916;8.378;2023-04-01T01:40:14;4.95;;;1.20;;
35380;SDS011;21486;51.916;8.378;2023-04-01T01:42:43;4.37;;;1.20;;
35380;SDS011;21486;51.916;8.378;2023-04-01T01:45:12;4.00;;;1.38;;
35380;SDS011;21486;51.916;8.378;2023-04-01T01:47:39;4.80;;;1.48;;
35380;SDS011;21486;51.916;8.378;2023-04-01T01:50:06;3.80;;;1.58;;
35380;SDS011;21486;51.916;8.378;2023-04-01T01:52:33;3.58;;;1.50;;
35380;SDS011;21486;51.916;8.378;2023-04-01T01:54:58;3.25;;;1.33;;
35380;SDS011;21486;51.916;8.378;2023-04-01T01:57:34;7.43;;;1.52;;
35380;SDS011;21486;51.916;8.378;2023-04-01T02:00:04;2.88;;;1.20;;
35380;SDS011;21486;51.916;8.378;2023-04-01T02:02:38;3.28;;;1.30;;
35380;SDS011;21486;51.916;8.378;2023-04-01T02:05:05;5.00;;;1.20;;
35380;SDS011;21486;51.916;8.378;2023-04-01T02:07:33;3.55;;;1.20;;
35380;SDS011;21486;51.916;8.378;2023-04-01T02:10:01;4.10;;;1.08;;
35380;SDS011;21486;51.916;8.378;2023-04-01T02:12:28;4.03;;;1.40;;
35380;SDS011;21486;51.916;8.378;2023-04-01T02:14:58;4.63;;;1.25;;
35380;SDS011;21486;51.916;8.378;2023-04-01T02:17:29;3.03;;;1.00;;
35380;SDS011;21486;51.916;8.378;2023-04-01T02:19:57;3.72;;;1.10;;
35380;SDS011;21486;51.916;8.378;2023-04-01T02:22:27;5.75;;;1.02;;
35380;SDS011;21486;51.916;8.378;2023-04-01T02:25:00;2.00;;;1.00;;
35380;SDS011;21486;51.916;8.378;2023-04-01T02:27:31;3.20;;;1.10;;
35380;SDS011;21486;51.916;8.378;2023-04-01T02:29:57;4.30;;;1.10;;
35380;SDS011;21486;51.916;8.378;2023-04-01T02:32:23;3.45;;;1.50;;
35380;SDS011;21486;51.916;8.378;2023-04-01T02:34:49;4.95;;;1.17;;
35380;SDS011;21486;51.916;8.378;2023-04-01T02:37:15;3.47;;;0.90;;
35380;SDS011;21486;51.916;8.378;2023-04-01T02:39:41;1.52;;;1.00;;
35380;SDS011;21486;51.916;8.378;2023-04-01T02:42:08;2.95;;;0.98;;
35380;SDS011;21486;51.916;8.378;2023-04-01T02:44:33;2.60;;;1.10;;
35380;SDS011;21486;51.916;8.378;2023-04-01T02:46:59;2.43;;;1.07;;
35380;SDS011;21486;51.916;8.378;2023-04-01T02:49:25;4.22;;;1.33;;
35380;SDS011;21486;51.916;8.378;2023-04-01T02:51:51;2.20;;;1.07;;
35380;SDS011;21486;51.916;8.378;2023-04-01T02:54:17;2.57;;;0.80;;
35380;SDS011;21486;51.916;8.378;2023-04-01T02:56:43;2.90;;;0.90;;
35380;SDS011;21486;51.916;8.378;2023-04-01T02:59:08;1.63;;;1.20;;
35380;SDS011;21486;51.916;8.378;2023-04-01T03:01:34;1.70;;;0.90;;
35380;SDS011;21486;51.916;8.378;2023-04-01T03:04:00;2.22;;;1.00;;
35380;SDS011;21486;51.916;8.378;2023-04-01T03:06:26;2.58;;;1.00;;
35380;SDS011;21486;51.916;8.378;2023-04-01T03:08:51;2.20;;;0.85;;
35380;SDS011;21486;51.916;8.378;2023-04-01T03:11:17;4.80;;;0.82;;
35380;SDS011;21486;51.916;8.378;2023-04-01T03:13:42;2.77;;;0.80;;
35380;SDS011;21486;51.916;8.378;2023-04-01T03:16:08;3.43;;;0.90;;
35380;SDS011;21486;51.916;8.378;2023-04-01T03:18:33;4.20;;;0.93;;
35380;SDS011;21486;51.916;8.378;2023-04-01T03:23:41;2.72;;;0.90;;
35380;SDS011;21486;51.916;8.378;2023-04-01T03:26:06;5.35;;;0.80;;
35380;SDS011;21486;51.916;8.378;2023-04-01T03:28:32;2.20;;;1.05;;
35380;SDS011;21486;51.916;8.378;2023-04-01T03:30:58;3.70;;;1.00;;
35380;SDS011;21486;51.916;8.378;2023-04-01T03:33:24;4.80;;;1.10;;
35380;SDS011;21486;51.916;8.378;2023-04-01T03:35:49;2.13;;;1.70;;
35380;SDS011;21486;51.916;8.378;2023-04-01T03:38:17;3.70;;;0.95;;
35380;SDS011;21486;51.916;8.378;2023-04-01T03:40:42;2.40;;;0.93;;
35380;SDS011;21486;51.916;8.378;2023-04-01T03:43:09;3.22;;;0.90;;
35380;SDS011;21486;51.916;8.378;2023-04-01T03:45:35;1.67;;;0.90;;
35380;SDS011;21486;51.916;8.378;2023-04-01T03:48:01;1.65;;;1.00;;
35380;SDS011;21486;51.916;8.378;2023-04-01T03:50:26;1.77;;;1.00;;
35380;SDS011;21486;51.916;8.378;2023-04-01T03:52:52;2.13;;;0.90;;
35380;SDS011;21486;51.916;8.378;2023-04-01T03:55:17;2.00;;;0.90;;
35380;SDS011;21486;51.916;8.378;2023-04-01T03:57:43;3.58;;;1.27;;
35380;SDS011;21486;51.916;8.378;2023-04-01T04:00:09;1.23;;;1.00;;
35380;SDS011;21486;51.916;8.378;2023-04-01T04:02:35;1.50;;;0.98;;
35380;SDS011;21486;51.916;8.378;2023-04-01T04:05:01;2.63;;;1.10;;
35380;SDS011;21486;51.916;8.378;2023-04-01T04:07:26;1.90;;;1.00;;
35380;SDS011;21486;51.916;8.378;2023-04-01T04:09:52;2.17;;;0.97;;
35380;SDS011;21486;51.916;8.378;2023-04-01T04:12:17;2.57;;;0.90;;
35380;SDS011;21486;51.916;8.378;2023-04-01T04:14:43;1.77;;;0.98;;
35380;SDS011;21486;51.916;8.378;2023-04-01T04:17:12;1.58;;;0.90;;
35380;SDS011;21486;51.916;8.378;2023-04-01T04:19:41;4.60;;;0.95;;
35380;SDS011;21486;51.916;8.378;2023-04-01T04:22:07;4.03;;;1.10;;
35380;SDS011;21486;51.916;8.378;2023-04-01T04:24:34;3.40;;;1.00;;
35380;SDS011;21486;51.916;8.378;2023-04-01T04:27:00;2.13;;;0.82;;
35380;SDS011;21486;51.916;8.378;2023-04-01T04:29:25;3.15;;;0.93;;
35380;SDS011;21486;51.916;8.378;2023-04-01T04:31:51;5.03;;;1.10;;
35380;SDS011;21486;51.916;8.378;2023-04-01T04:34:16;2.70;;;1.17;;
35380;SDS011;21486;51.916;8.378;2023-04-01T04:36:43;1.48;;;1.00;;
35380;SDS011;21486;51.916;8.378;2023-04-01T04:39:09;2.03;;;1.27;;
35380;SDS011;21486;51.916;8.378;2023-04-01T04:41:36;2.20;;;1.07;;
35380;SDS011;21486;51.916;8.378;2023-04-01T04:44:02;3.30;;;1.10;;
35380;SDS011;21486;51.916;8.378;2023-04-01T04:46:28;1.60;;;1.10;;
35380;SDS011;21486;51.916;8.378;2023-04-01T04:48:53;1.90;;;0.80;;
35380;SDS011;21486;51.916;8.378;2023-04-01T04:51:19;2.63;;;1.03;;
35380;SDS011;21486;51.916;8.378;2023-04-01T04:53:46;3.35;;;0.88;;
35380;SDS011;21486;51.916;8.378;2023-04-01T04:56:12;1.83;;;0.80;;
35380;SDS011;21486;51.916;8.378;2023-04-01T04:58:42;2.88;;;0.93;;
35380;SDS011;21486;51.916;8.378;2023-04-01T05:01:08;2.50;;;1.00;;
35380;SDS011;21486;51.916;8.378;2023-04-01T05:03:36;2.67;;;1.00;;
35380;SDS011;21486;51.916;8.378;2023-04-01T05:06:02;2.40;;;1.10;;
35380;SDS011;21486;51.916;8.378;2023-04-01T05:08:28;1.30;;;1.00;;
35380;SDS011;21486;51.916;8.378;2023-04-01T05:10:54;1.73;;;1.30;;
35380;SDS011;21486;51.916;8.378;2023-04-01T05:13:20;1.90;;;0.87;;
35380;SDS011;21486;51.916;8.378;2023-04-01T05:15:45;4.20;;;1.30;;
35380;SDS011;21486;51.916;8.378;2023-04-01T05:18:11;1.40;;;1.10;;
35380;SDS011;21486;51.916;8.378;2023-04-01T05:20:36;1.75;;;1.10;;
35380;SDS011;21486;51.916;8.378;2023-04-01T05:23:02;2.23;;;1.00;;
35380;SDS011;21486;51.916;8.378;2023-04-01T05:25:28;1.70;;;1.15;;
35380;SDS011;21486;51.916;8.378;2023-04-01T05:27:53;1.48;;;1.13;;
35380;SDS011;21486;51.916;8.378;2023-04-01T05:30:19;3.17;;;1.33;;
35380;SDS011;21486;51.916;8.378;2023-04-01T05:32:45;2.80;;;1.20;;
35380;SDS011;21486;51.916;8.378;2023-04-01T05:35:11;2.67;;;1.20;;
35380;SDS011;21486;51.916;8.378;2023-04-01T05:37:36;1.45;;;1.00;;
35380;SDS011;21486;51.916;8.378;2023-04-01T05:40:02;2.60;;;1.20;;
35380;SDS011;21486;51.916;8.378;2023-04-01T05:42:28;3.95;;;1.20;;
35380;SDS011;21486;51.916;8.378;2023-04-01T05:44:54;1.97;;;1.00;;
35380;SDS011;21486;51.916;8.378;2023-04-01T05:47:20;1.33;;;1.10;;
35380;SDS011;21486;51.916;8.378;2023-04-01T05:49:46;3.40;;;1.13;;
35380;SDS011;21486;51.916;8.378;2023-04-01T05:52:12;3.55;;;1.20;;
35380;SDS011;21486;51.916;8.378;2023-04-01T05:54:38;1.65;;;1.10;;
35380;SDS011;21486;51.916;8.378;2023-04-01T05:57:03;4.47;;;1.40;;
35380;SDS011;21486;51.916;8.378;2023-04-01T05:59:29;1.63;;;0.90;;
35380;SDS011;21486;51.916;8.378;2023-04-01T06:01:56;2.40;;;1.20;;
35380;SDS011;21486;51.916;8.378;2023-04-01T06:04:22;2.45;;;1.30;;
35380;SDS011;21486;51.916;8.378;2023-04-01T06:06:47;2.38;;;2.10;;
35380;SDS011;21486;51.916;8.378;2023-04-01T06:09:14;4.95;;;3.38;;
35380;SDS011;21486;51.916;8.378;2023-04-01T06:14:43;3.05;;;1.45;;
35380;SDS011;21486;51.916;8.378;2023-04-01T06:20:12;2.00;;;1.20;;
35380;SDS011;21486;51.916;8.378;2023-04-01T06:31:47;3.17;;;1.60;;
35380;SDS011;21486;51.916;8.378;2023-04-01T06:34:35;1.58;;;1.30;;
35380;SDS011;21486;51.916;8.378;2023-04-01T06:37:20;2.22;;;1.58;;
35380;SDS011;21486;51.916;8.378;2023-04-01T06:42:41;3.40;;;1.90;;
35380;SDS011;21486;51.916;8.378;2023-04-01T06:45:32;3.47;;;1.67;;
35380;SDS011;21486;51.916;8.378;2023-04-01T06:48:34;3.03;;;1.70;;
35380;SDS011;21486;51.916;8.378;2023-04-01T06:51:18;2.78;;;1.55;;
35380;SDS011;21486;51.916;8.378;2023-04-01T06:54:03;4.55;;;1.92;;
35380;SDS011;21486;51.916;8.378;2023-04-01T06:56:45;8.93;;;1.90;;
35380;SDS011;21486;51.916;8.378;2023-04-01T06:59:21;2.60;;;2.03;;
35380;SDS011;21486;51.916;8.378;2023-04-01T07:01:51;2.53;;;1.55;;
35380;SDS011;21486;51.916;8.378;2023-04-01T07:04:29;3.00;;;1.60;;
35380;SDS011;21486;51.916;8.378;2023-04-01T07:06:58;5.40;;;2.20;;
35380;SDS011;21486;51.916;8.378;2023-04-01T07:09:40;2.00;;;1.70;;
35380;SDS011;21486;51.916;8.378;2023-04-01T07:12:21;3.53;;;1.70;;
35380;SDS011;21486;51.916;8.378;2023-04-01T07:15:09;3.08;;;2.10;;
35380;SDS011;21486;51.916;8.378;2023-04-01T07:17:43;2.95;;;1.65;;
35380;SDS011;21486;51.916;8.378;2023-04-01T07:20:32;4.85;;;1.70;;
35380;SDS011;21486;51.916;8.378;2023-04-01T07:23:04;4.30;;;1.60;;
35380;SDS011;21486;51.916;8.378;2023-04-01T07:25:37;2.83;;;1.52;;
35380;SDS011;21486;51.916;8.378;2023-04-01T07:28:11;4.53;;;2.00;;
35380;SDS011;21486;51.916;8.378;2023-04-01T07:33:39;4.10;;;1.85;;
35380;SDS011;21486;51.916;8.378;2023-04-01T07:36:38;3.53;;;1.77;;
35380;SDS011;21486;51.916;8.378;2023-04-01T07:42:00;2.50;;;1.70;;
35380;SDS011;21486;51.916;8.378;2023-04-01T07:47:40;2.83;;;1.73;;
35380;SDS011;21486;51.916;8.378;2023-04-01T07:50:32;4.40;;;1.63;;
35380;SDS011;21486;51.916;8.378;2023-04-01T07:53:17;3.88;;;1.50;;
35380;SDS011;21486;51.916;8.378;2023-04-01T08:01:20;2.53;;;1.40;;
35380;SDS011;21486;51.916;8.378;2023-04-01T08:03:56;5.80;;;1.52;;
35380;SDS011;21486;51.916;8.378;2023-04-01T08:06:32;1.65;;;1.17;;
35380;SDS011;21486;51.916;8.378;2023-04-01T08:09:11;2.95;;;1.10;;
35380;SDS011;21486;51.916;8.378;2023-04-01T08:11:50;1.55;;;1.45;;
35380;SDS011;21486;51.916;8.378;2023-04-01T08:17:10;3.58;;;1.50;;
35380;SDS011;21486;51.916;8.378;2023-04-01T08:19:46;1.83;;;1.30;;
35380;SDS011;21486;51.916;8.378;2023-04-01T08:22:41;1.98;;;1.30;;
35380;SDS011;21486;51.916;8.378;2023-04-01T08:25:10;3.00;;;1.40;;
35380;SDS011;21486;51.916;8.378;2023-04-01T08:27:47;3.28;;;1.38;;
35380;SDS011;21486;51.916;8.378;2023-04-01T08:30:20;2.33;;;1.40;;
35380;SDS011;21486;51.916;8.378;2023-04-01T08:32:53;2.78;;;1.42;;
35380;SDS011;21486;51.916;8.378;2023-04-01T08:35:26;1.80;;;1.50;;
35380;SDS011;21486;51.916;8.378;2023-04-01T08:38:18;3.65;;;1.40;;
35380;SDS011;21486;51.916;8.378;2023-04-01T08:40:56;1.98;;;1.42;;
35380;SDS011;21486;51.916;8.378;2023-04-01T08:43:28;1.60;;;1.25;;
35380;SDS011;21486;51.916;8.378;2023-04-01T08:49:25;2.15;;;1.42;;
35380;SDS011;21486;51.916;8.378;2023-04-01T08:57:17;2.35;;;1.40;;
35380;SDS011;21486;51.916;8.378;2023-04-01T09:00:00;5.20;;;2.78;;
35380;SDS011;21486;51.916;8.378;2023-04-01T09:08:15;2.40;;;1.80;;
35380;SDS011;21486;51.916;8.378;2023-04-01T09:11:03;2.80;;;1.73;;
35380;SDS011;21486;51.916;8.378;2023-04-01T09:16:28;2.23;;;1.90;;
35380;SDS011;21486;51.916;8.378;2023-04-01T09:24:33;2.50;;;1.87;;
35380;SDS011;21486;51.916;8.378;2023-04-01T09:35:50;4.68;;;1.60;;
35380;SDS011;21486;51.916;8.378;2023-04-01T09:49:55;3.30;;;1.65;;
35380;SDS011;21486;51.916;8.378;2023-04-01T09:52:35;2.13;;;1.60;;
35380;SDS011;21486;51.916;8.378;2023-04-01T10:09:04;1.58;;;1.00;;
35380;SDS011;21486;51.916;8.378;2023-04-01T10:12:04;2.38;;;1.45;;
35380;SDS011;21486;51.916;8.378;2023-04-01T10:14:54;3.00;;;1.50;;
35380;SDS011;21486;51.916;8.378;2023-04-01T10:20:18;1.83;;;1.42;;
35380;SDS011;21486;51.916;8.378;2023-04-01T10:31:51;2.63;;;2.00;;
35380;SDS011;21486;51.916;8.378;2023-04-01T10:45:22;2.28;;;1.77;;
35380;SDS011;21486;51.916;8.378;2023-04-01T10:51:03;2.97;;;1.60;;
35380;SDS011;21486;51.916;8.378;2023-04-01T10:56:51;1.40;;;1.30;;
35380;SDS011;21486;51.916;8.378;2023-04-01T11:30:33;2.30;;;2.10;;
35380;SDS011;21486;51.916;8.378;2023-04-01T11:33:21;3.75;;;2.08;;
35380;SDS011;21486;51.916;8.378;2023-04-01T11:35:55;3.13;;;2.20;;
35380;SDS011;21486;51.916;8.378;2023-04-01T11:38:42;3.45;;;2.20;;
35380;SDS011;21486;51.916;8.378;2023-04-01T11:41:33;3.38;;;2.08;;
35380;SDS011;21486;51.916;8.378;2023-04-01T11:44:20;2.78;;;2.00;;
35380;SDS011;21486;51.916;8.378;2023-04-01T11:49:40;2.78;;;2.17;;
35380;SDS011;21486;51.916;8.378;2023-04-01T11:57:38;2.00;;;1.80;;
35380;SDS011;21486;51.916;8.378;2023-04-01T12:02:48;2.20;;;2.00;;
35380;SDS011;21486;51.916;8.378;2023-04-01T12:08:31;2.63;;;2.40;;
35380;SDS011;21486;51.916;8.378;2023-04-01T12:14:16;3.28;;;2.80;;
35380;SDS011;21486;51.916;8.378;2023-04-01T12:16:48;3.42;;;2.83;;
35380;SDS011;21486;51.916;8.378;2023-04-01T12:22:19;2.83;;;2.28;;
35380;SDS011;21486;51.916;8.378;2023-04-01T12:24:59;3.42;;;2.20;;
35380;SDS011;21486;51.916;8.378;2023-04-01T12:36:05;2.77;;;2.43;;
35380;SDS011;21486;51.916;8.378;2023-04-01T12:38:59;3.17;;;2.50;;
35380;SDS011;21486;51.916;8.378;2023-04-01T12:41:32;2.80;;;2.58;;
35380;SDS011;21486;51.916;8.378;2023-04-01T12:44:13;4.90;;;3.40;;
35380;SDS011;21486;51.916;8.378;2023-04-01T12:52:46;4.30;;;3.40;;
35380;SDS011;21486;51.916;8.378;2023-04-01T13:08:43;6.33;;;5.20;;
35380;SDS011;21486;51.916;8.378;2023-04-01T13:11:45;5.78;;;4.80;;
35380;SDS011;21486;51.916;8.378;2023-04-01T13:17:15;5.20;;;4.60;;
35380;SDS011;21486;51.916;8.378;2023-04-01T13:19:50;5.70;;;4.75;;
35380;SDS011;21486;51.916;8.378;2023-04-01T13:22:28;5.57;;;4.97;;
35380;SDS011;21486;51.916;8.378;2023-04-01T13:28:32;6.85;;;5.50;;
35380;SDS011;21486;51.916;8.378;2023-04-01T13:31:14;6.63;;;5.40;;
35380;SDS011;21486;51.916;8.378;2023-04-01T13:36:36;5.72;;;4.68;;
35380;SDS011;21486;51.916;8.378;2023-04-01T13:39:30;5.18;;;4.15;;
35380;SDS011;21486;51.916;8.378;2023-04-01T13:42:16;6.65;;;4.65;;
35380;SDS011;21486;51.916;8.378;2023-04-01T13:44:51;4.80;;;3.60;;
35380;SDS011;21486;51.916;8.378;2023-04-01T14:01:42;5.57;;;3.75;;
35380;SDS011;21486;51.916;8.378;2023-04-01T14:04:32;5.50;;;3.55;;
35380;SDS011;21486;51.916;8.378;2023-04-01T14:10:23;5.20;;;4.17;;
35380;SDS011;21486;51.916;8.378;2023-04-01T14:23:50;6.03;;;4.17;;
35380;SDS011;21486;51.916;8.378;2023-04-01T14:32:40;6.60;;;5.28;;
35380;SDS011;21486;51.916;8.378;2023-04-01T14:35:31;5.50;;;4.88;;
35380;SDS011;21486;51.916;8.378;2023-04-01T14:41:06;6.78;;;5.85;;
35380;SDS011;21486;51.916;8.378;2023-04-01T14:46:37;5.45;;;4.70;;
35380;SDS011;21486;51.916;8.378;2023-04-01T14:52:04;6.50;;;4.70;;
35380;SDS011;21486;51.916;8.378;2023-04-01T14:54:37;4.50;;;3.87;;
35380;SDS011;21486;51.916;8.378;2023-04-01T14:57:14;6.13;;;3.90;;
35380;SDS011;21486;51.916;8.378;2023-04-01T14:59:47;6.85;;;3.80;;
35380;SDS011;21486;51.916;8.378;2023-04-01T15:05:13;9.50;;;7.30;;
35380;SDS011;21486;51.916;8.378;2023-04-01T15:13:05;3.95;;;3.35;;
35380;SDS011;21486;51.916;8.378;2023-04-01T15:19:12;7.22;;;5.30;;
35380;SDS011;21486;51.916;8.378;2023-04-01T15:21:43;5.47;;;4.40;;
35380;SDS011;21486;51.916;8.378;2023-04-01T15:24:41;5.32;;;4.78;;
35380;SDS011;21486;51.916;8.378;2023-04-01T15:32:21;5.20;;;3.90;;
35380;SDS011;21486;51.916;8.378;2023-04-01T15:37:54;5.47;;;4.90;;
35380;SDS011;21486;51.916;8.378;2023-04-01T15:40:31;8.05;;;5.90;;
35380;SDS011;21486;51.916;8.378;2023-04-01T16:00:26;7.45;;;6.22;;
35380;SDS011;21486;51.916;8.378;2023-04-01T16:03:09;6.80;;;6.03;;
35380;SDS011;21486;51.916;8.378;2023-04-01T16:05:49;5.53;;;4.97;;
35380;SDS011;21486;51.916;8.378;2023-04-01T16:22:06;11.05;;;6.00;;
35380;SDS011;21486;51.916;8.378;2023-04-01T16:30:33;18.33;;;11.15;;
35380;SDS011;21486;51.916;8.378;2023-04-01T16:36:42;7.90;;;5.50;;
35380;SDS011;21486;51.916;8.378;2023-04-01T16:38:54;7.72;;;5.60;;
35380;SDS011;21486;51.916;8.378;2023-04-01T16:44:30;9.77;;;6.40;;
35380;SDS011;21486;51.916;8.378;2023-04-01T16:47:09;12.15;;;6.10;;
35380;SDS011;21486;51.916;8.378;2023-04-01T16:49:42;10.68;;;6.95;;
35380;SDS011;21486;51.916;8.378;2023-04-01T16:52:36;10.10;;;6.33;;
35380;SDS011;21486;51.916;8.378;2023-04-01T16:55:46;8.60;;;6.60;;
35380;SDS011;21486;51.916;8.378;2023-04-01T16:58:35;10.87;;;7.67;;
35380;SDS011;21486;51.916;8.378;2023-04-01T17:03:45;9.40;;;6.75;;
35380;SDS011;21486;51.916;8.378;2023-04-01T17:06:25;8.50;;;6.65;;
35380;SDS011;21486;51.916;8.378;2023-04-01T17:09:25;9.18;;;6.32;;
35380;SDS011;21486;51.916;8.378;2023-04-01T17:12:13;9.55;;;7.53;;
35380;SDS011;21486;51.916;8.378;2023-04-01T17:17:38;7.88;;;6.68;;
35380;SDS011;21486;51.916;8.378;2023-04-01T17:20:11;9.52;;;7.07;;
35380;SDS011;21486;51.916;8.378;2023-04-01T17:23:08;12.18;;;8.13;;
35380;SDS011;21486;51.916;8.378;2023-04-01T17:25:49;9.93;;;7.90;;
35380;SDS011;21486;51.916;8.378;2023-04-01T17:31:26;4.82;;;3.72;;
35380;SDS011;21486;51.916;8.378;2023-04-01T17:42:52;5.73;;;4.50;;
35380;SDS011;21486;51.916;8.378;2023-04-01T17:48:17;3.45;;;2.92;;
35380;SDS011;21486;51.916;8.378;2023-04-01T17:56:28;2.10;;;1.90;;
35380;SDS011;21486;51.916;8.378;2023-04-01T17:59:10;3.85;;;2.30;;
35380;SDS011;21486;51.916;8.378;2023-04-01T18:04:35;3.50;;;2.13;;
35380;SDS011;21486;51.916;8.378;2023-04-01T18:07:20;3.88;;;2.58;;
35380;SDS011;21486;51.916;8.378;2023-04-01T18:21:27;4.50;;;3.40;;
35380;SDS011;21486;51.916;8.378;2023-04-01T18:27:02;2.60;;;2.20;;
35380;SDS011;21486;51.916;8.378;2023-04-01T18:29:35;2.42;;;2.08;;
35380;SDS011;21486;51.916;8.378;2023-04-01T18:32:31;1.48;;;1.38;;
35380;SDS011;21486;51.916;8.378;2023-04-01T18:38:07;2.25;;;1.73;;
35380;SDS011;21486;51.916;8.378;2023-04-01T18:41:12;3.17;;;2.17;;
35380;SDS011;21486;51.916;8.378;2023-04-01T18:43:53;2.15;;;1.80;;
35380;SDS011;21486;51.916;8.378;2023-04-01T18:49:05;1.85;;;1.73;;
35380;SDS011;21486;51.916;8.378;2023-04-01T18:51:52;2.10;;;1.93;;
35380;SDS011;21486;51.916;8.378;2023-04-01T18:57:46;2.88;;;1.80;;
35380;SDS011;21486;51.916;8.378;2023-04-01T19:00:22;2.10;;;1.90;;
35380;SDS011;21486;51.916;8.378;2023-04-01T19:05:51;2.40;;;1.98;;
35380;SDS011;21486;51.916;8.378;2023-04-01T19:08:31;2.53;;;2.15;;
35380;SDS011;21486;51.916;8.378;2023-04-01T19:19:07;2.77;;;2.10;;
35380;SDS011;21486;51.916;8.378;2023-04-01T19:21:42;2.65;;;1.70;;
35380;SDS011;21486;51.916;8.378;2023-04-01T19:27:21;1.40;;;1.30;;
35380;SDS011;21486;51.916;8.378;2023-04-01T19:32:55;1.50;;;1.40;;
35380;SDS011;21486;51.916;8.378;2023-04-01T19:35:49;1.33;;;1.23;;
35380;SDS011;21486;51.916;8.378;2023-04-01T19:38:37;1.70;;;1.55;;
35380;SDS011;21486;51.916;8.378;2023-04-01T19:46:58;2.40;;;1.30;;
35380;SDS011;21486;51.916;8.378;2023-04-01T19:50:00;3.40;;;1.60;;
35380;SDS011;21486;51.916;8.378;2023-04-01T19:52:39;2.97;;;1.27;;
35380;SDS011;21486;51.916;8.378;2023-04-01T19:55:27;1.60;;;1.50;;
35380;SDS011;21486;51.916;8.378;2023-04-01T19:58:23;1.52;;;1.42;;
35380;SDS011;21486;51.916;8.378;2023-04-01T20:00:57;1.60;;;1.50;;
35380;SDS011;21486;51.916;8.378;2023-04-01T20:03:41;1.60;;;1.50;;
35380;SDS011;21486;51.916;8.378;2023-04-01T20:06:31;1.40;;;1.30;;
35380;SDS011;21486;51.916;8.378;2023-04-01T20:14:59;1.52;;;1.42;;
35380;SDS011;21486;51.916;8.378;2023-04-01T20:17:38;2.95;;;2.75;;
35380;SDS011;21486;51.916;8.378;2023-04-01T20:22:36;3.80;;;3.40;;
35380;SDS011;21486;51.916;8.378;2023-04-01T20:25:32;5.03;;;3.70;;
35380;SDS011;21486;51.916;8.378;2023-04-01T20:28:01;3.45;;;3.15;;
35380;SDS011;21486;51.916;8.378;2023-04-01T20:33:59;3.70;;;3.35;;
35380;SDS011;21486;51.916;8.378;2023-04-01T20:36:26;3.95;;;3.45;;
35380;SDS011;21486;51.916;8.378;2023-04-01T20:44:46;4.13;;;3.75;;
35380;SDS011;21486;51.916;8.378;2023-04-01T20:53:17;4.33;;;3.90;;
35380;SDS011;21486;51.916;8.378;2023-04-01T21:06:35;1.70;;;1.50;;
35380;SDS011;21486;51.916;8.378;2023-04-01T21:09:23;1.60;;;1.50;;
35380;SDS011;21486;51.916;8.378;2023-04-01T21:12:15;1.58;;;1.48;;
35380;SDS011;21486;51.916;8.378;2023-04-01T21:31:55;2.95;;;2.65;;
35380;SDS011;21486;51.916;8.378;2023-04-01T21:34:41;3.33;;;2.95;;
35380;SDS011;21486;51.916;8.378;2023-04-01T21:37:18;2.90;;;2.40;;
35380;SDS011;21486;51.916;8.378;2023-04-01T21:46:07;3.40;;;3.10;;
35380;SDS011;21486;51.916;8.378;2023-04-01T21:48:44;3.80;;;3.50;;
35380;SDS011;21486;51.916;8.378;2023-04-01T21:57:19;3.00;;;2.70;;
35380;SDS011;21486;51.916;8.378;2023-04-01T22:02:43;3.40;;;3.10;;
35380;SDS011;21486;51.916;8.378;2023-04-01T22:13:26;2.80;;;2.60;;
35380;SDS011;21486;51.916;8.378;2023-04-01T22:18:53;5.30;;;3.70;;
35380;SDS011;21486;51.916;8.378;2023-04-01T22:21:40;5.00;;;3.45;;
35380;SDS011;21486;51.916;8.378;2023-04-01T22:24:29;4.10;;;3.70;;
35380;SDS011;21486;51.916;8.378;2023-04-01T22:27:21;3.38;;;3.08;;
35380;SDS011;21486;51.916;8.378;2023-04-01T22:32:47;3.90;;;3.50;;
35380;SDS011;21486;51.916;8.378;2023-04-01T22:38:09;4.70;;;4.15;;
35380;SDS011;21486;51.916;8.378;2023-04-01T22:41:05;4.13;;;3.72;;
35380;SDS011;21486;51.916;8.378;2023-04-01T22:43:51;3.65;;;3.17;;
35380;SDS011;21486;51.916;8.378;2023-04-01T22:47:02;3.88;;;3.25;;
35380;SDS011;21486;51.916;8.378;2023-04-01T22:49:17;3.83;;;3.47;;
35380;SDS011;21486;51.916;8.378;2023-04-01T22:52:07;4.40;;;3.60;;
35380;SDS011;21486;51.916;8.378;2023-04-01T22:55:25;5.38;;;3.70;;
35380;SDS011;21486;51.916;8.378;2023-04-01T22:57:59;4.20;;;3.65;;
35380;SDS011;21486;51.916;8.378;2023-04-01T23:00:37;4.40;;;4.00;;
35380;SDS011;21486;51.916;8.378;2023-04-01T23:06:05;5.28;;;3.60;;
35380;SDS011;21486;51.916;8.378;2023-04-01T23:08:38;6.00;;;3.30;;
35380;SDS011;21486;51.916;8.378;2023-04-01T23:11:21;4.22;;;3.83;;
35380;SDS011;21486;51.916;8.378;2023-04-01T23:16:45;4.43;;;3.55;;
35380;SDS011;21486;51.916;8.378;2023-04-01T23:19:34;5.82;;;4.13;;
35380;SDS011;21486;51.916;8.378;2023-04-01T23:22:35;5.13;;;3.83;;
35380;SDS011;21486;51.916;8.378;2023-04-01T23:25:24;4.57;;;3.30;;
35380;SDS011;21486;51.916;8.378;2023-04-01T23:30:50;3.90;;;3.03;;
35380;SDS011;21486;51.916;8.378;2023-04-01T23:38:35;3.05;;;2.55;;
35380;SDS011;21486;51.916;8.378;2023-04-01T23:41:03;3.72;;;3.05;;
35380;SDS011;21486;51.916;8.378;2023-04-01T23:43:34;4.00;;;3.13;;
35380;SDS011;21486;51.916;8.378;2023-04-01T23:46:03;3.30;;;2.60;;
35380;SDS011;21486;51.916;8.378;2023-04-01T23:48:33;3.67;;;2.78;;
35380;SDS011;21486;51.916;8.378;2023-04-01T23:51:22;5.13;;;3.33;;
35380;SDS011;21486;51.916;8.378;2023-04-01T23:54:04;3.08;;;2.78;;
35380;SDS011;21486;51.916;8.378;2023-04-01T23:56:43;3.70;;;3.00;;
35380;SDS011;21486;51.916;8.378;2023-04-01T23:59:18;3.25;;;2.90;;
